Time;durP1;ratioP1;P1;durP2;ratioP2;P2;SDS_P1;SDS_P2;PMS_P1;PMS_P2;Temp;Humidity;BMP_temperature;BMP_pressure;BME280_temperature;BME280_humidity;BME280_pressure;Samples;Min_cycle;Max_cycle;Signal;HPM_P1;HPM_P2
2023/02/08 00:01:16;;;;;;;34.45;15.52;;;-5.20;99.90;;;;;;5069407;28;20024;-54
2023/02/08 00:03:42;;;;;;;34.30;14.23;;;-5.20;99.90;;;;;;5090619;28;20051;-53
2023/02/08 00:06:09;;;;;;;33.45;15.23;;;-5.30;99.90;;;;;;5066456;28;20495;-53
2023/02/08 00:08:35;;;;;;;34.17;14.43;;;-5.30;99.90;;;;;;5068588;28;20468;-54
2023/02/08 00:11:01;;;;;;;24.42;11.70;;;-5.30;99.90;;;;;;5089880;28;20043;-53
2023/02/08 00:13:27;;;;;;;26.10;12.07;;;-5.30;99.90;;;;;;5069007;28;20052;-53
2023/02/08 00:15:54;;;;;;;31.10;14.10;;;-5.30;99.90;;;;;;5089888;28;20059;-55
2023/02/08 00:18:20;;;;;;;32.30;12.93;;;-5.40;99.90;;;;;;5069014;28;20031;-54
2023/02/08 00:20:47;;;;;;;27.83;13.30;;;-5.40;99.90;;;;;;5089862;28;20479;-52
2023/02/08 00:23:13;;;;;;;17.55;9.23;;;-5.40;99.90;;;;;;5068621;28;20107;-52
2023/02/08 00:25:40;;;;;;;21.48;10.25;;;-5.50;99.90;;;;;;5089883;28;20028;-54
2023/02/08 00:28:06;;;;;;;32.28;13.00;;;-5.40;99.90;;;;;;5068766;28;20025;-53
2023/02/08 00:30:32;;;;;;;29.65;12.30;;;-5.50;99.90;;;;;;5089777;28;20031;-55
2023/02/08 00:33:00;;;;;;;27.33;12.00;;;-5.50;99.90;;;;;;5068381;28;20040;-54
2023/02/08 00:35:25;;;;;;;24.38;11.55;;;-5.50;99.90;;;;;;5089513;28;20028;-53
2023/02/08 00:37:51;;;;;;;32.83;13.57;;;-5.50;99.90;;;;;;5068505;28;20032;-55
2023/02/08 00:40:16;;;;;;;27.63;11.93;;;-5.50;99.90;;;;;;5089109;28;20040;-52
2023/02/08 00:42:42;;;;;;;31.50;13.18;;;-5.60;99.90;;;;;;5067023;28;20107;-51
2023/02/08 00:45:08;;;;;;;26.17;11.02;;;-5.60;99.90;;;;;;5089258;28;20036;-53
2023/02/08 00:47:33;;;;;;;30.75;13.02;;;-5.60;99.90;;;;;;5066818;28;20044;-54
2023/02/08 00:49:58;;;;;;;30.90;14.25;;;-5.60;99.90;;;;;;5088914;28;20035;-53
2023/02/08 00:52:24;;;;;;;20.60;10.75;;;-5.70;99.90;;;;;;5078170;28;20483;-53
2023/02/08 00:54:50;;;;;;;33.22;13.25;;;-5.70;99.90;;;;;;5069890;28;20078;-55
2023/02/08 00:57:15;;;;;;;30.00;12.50;;;-5.70;99.90;;;;;;5086864;28;20407;-55
2023/02/08 00:59:41;;;;;;;23.33;10.68;;;-5.70;99.90;;;;;;5069656;28;20029;-54
2023/02/08 01:02:06;;;;;;;26.38;11.40;;;-5.70;99.90;;;;;;5086908;28;20463;-54
2023/02/08 01:04:32;;;;;;;30.98;11.85;;;-5.80;99.90;;;;;;5070701;28;20032;-54
2023/02/08 01:06:58;;;;;;;30.13;14.43;;;-5.70;99.90;;;;;;5082890;28;20036;-53
2023/02/08 01:09:24;;;;;;;22.75;11.02;;;-5.80;99.90;;;;;;5089523;28;20020;-49
2023/02/08 01:11:50;;;;;;;28.58;11.88;;;-5.80;99.90;;;;;;5072959;28;20027;-55
2023/02/08 01:14:15;;;;;;;33.40;13.95;;;-5.80;99.90;;;;;;5089386;28;20035;-54
2023/02/08 01:16:41;;;;;;;22.48;11.20;;;-5.90;99.90;;;;;;5071219;28;20102;-54
2023/02/08 01:19:06;;;;;;;28.98;12.77;;;-5.90;99.90;;;;;;5089312;28;20058;-56
2023/02/08 01:21:34;;;;;;;28.08;12.18;;;-5.90;99.90;;;;;;5070545;28;20027;-53
2023/02/08 01:24:00;;;;;;;22.05;10.90;;;-5.90;99.90;;;;;;5089164;28;20019;-52
2023/02/08 01:26:26;;;;;;;22.13;10.52;;;-5.90;99.90;;;;;;5067484;28;20515;-55
2023/02/08 01:28:53;;;;;;;44.35;16.85;;;-6.00;99.90;;;;;;5069089;28;20035;-55
2023/02/08 01:31:24;;;;;;;26.48;11.60;;;-6.00;99.90;;;;;;5086432;28;20032;-59
2023/02/08 01:33:50;;;;;;;21.73;10.77;;;-6.00;99.90;;;;;;5089226;28;20020;-51
2023/02/08 01:36:16;;;;;;;26.02;10.90;;;-6.00;99.90;;;;;;5067978;28;20444;-53
2023/02/08 01:38:43;;;;;;;25.13;11.35;;;-6.00;99.90;;;;;;5088968;28;20104;-52
2023/02/08 01:41:14;;;;;;;26.73;11.43;;;-6.00;99.90;;;;;;5069314;28;20399;-48
2023/02/08 01:44:11;;;;;;;27.60;12.98;;;-6.10;99.90;;;;;;5068884;28;20365;-51
2023/02/08 01:46:38;;;;;;;;;;;-6.10;99.90;;;;;;5086593;28;20067;-47
2023/02/08 01:49:26;;;;;;;23.52;10.32;;;-6.10;99.90;;;;;;5088976;28;19915;-51
2023/02/08 01:51:55;;;;;;;15.52;8.43;;;-6.10;99.90;;;;;;5058369;28;20024;-51
2023/02/08 01:54:24;;;;;;;24.73;10.10;;;-6.10;99.90;;;;;;5089047;28;20051;-48
2023/02/08 01:56:50;;;;;;;23.48;10.50;;;-6.10;99.90;;;;;;5072249;28;20032;-51
2023/02/08 01:59:38;;;;;;;19.95;10.00;;;-6.10;99.90;;;;;;5088804;28;20051;-51
2023/02/08 02:02:06;;;;;;;32.17;11.63;;;-6.10;99.90;;;;;;5053791;28;20189;-51
2023/02/08 02:04:32;;;;;;;25.70;10.25;;;-6.10;99.90;;;;;;5069509;28;20511;-51
2023/02/08 02:06:59;;;;;;;30.02;11.90;;;-6.10;99.90;;;;;;5081332;28;20044;-48
2023/02/08 02:09:39;;;;;;;22.90;10.07;;;-6.20;99.90;;;;;;5088580;28;20020;-51
2023/02/08 02:12:07;;;;;;;23.40;10.73;;;-6.20;99.90;;;;;;5061323;28;20024;-51
2023/02/08 02:14:33;;;;;;;24.65;11.20;;;-6.20;99.90;;;;;;5087182;28;20016;-53
2023/02/08 02:17:00;;;;;;;28.52;10.43;;;-6.20;99.90;;;;;;5073418;28;20103;-52
2023/02/08 02:19:54;;;;;;;21.10;10.55;;;-6.20;99.90;;;;;;5088486;28;20028;-48
2023/02/08 02:22:31;;;;;;;24.67;9.70;;;-6.20;99.90;;;;;;5076218;28;20118;-50
2023/02/08 02:25:21;;;;;;;22.27;10.45;;;-6.20;99.90;;;;;;5068802;28;20068;-50
2023/02/08 02:28:22;;;;;;;23.13;9.07;;;-6.30;99.90;;;;;;5060737;28;20040;-50
2023/02/08 02:31:10;;;;;;;25.40;10.30;;;-6.30;99.90;;;;;;5052091;28;20116;-52
2023/02/08 02:34:07;;;;;;;27.77;11.60;;;-6.30;99.90;;;;;;5092109;28;20257;-49
2023/02/08 02:36:51;;;;;;;28.83;10.75;;;-6.30;99.90;;;;;;5073277;28;20052;-51
2023/02/08 02:39:28;;;;;;;24.17;9.68;;;-6.30;99.90;;;;;;5092047;28;20070;-51
2023/02/08 02:45:43;;;;;;;19.73;8.80;;;-6.30;99.90;;;;;;5037736;28;20041;-48
2023/02/08 02:48:11;;;;;;;24.48;10.98;;;-6.40;99.90;;;;;;5089953;28;20062;-49
2023/02/08 02:51:15;;;;;;;32.55;11.60;;;-6.40;99.90;;;;;;5072030;28;20031;-54
2023/02/08 02:53:53;;;;;;;22.08;11.05;;;-6.40;99.90;;;;;;5034095;28;20046;-49
2023/02/08 02:56:23;;;;;;;26.25;9.93;;;-6.40;99.90;;;;;;5052041;28;20033;-48
2023/02/08 02:58:51;;;;;;;25.65;11.52;;;-6.40;99.90;;;;;;5091736;28;20020;-51
2023/02/08 03:01:24;;;;;;;28.48;11.80;;;-6.40;99.90;;;;;;5070325;28;20174;-51
2023/02/08 03:03:51;;;;;;;31.48;14.13;;;-6.40;99.90;;;;;;5091772;28;20036;-49
2023/02/08 03:06:31;;;;;;;29.95;13.85;;;-6.40;99.90;;;;;;5065574;28;20017;-51
2023/02/08 03:09:11;;;;;;;26.27;14.10;;;-6.40;99.90;;;;;;5091637;28;20022;-52
2023/02/08 03:11:41;;;;;;;30.35;12.65;;;-6.30;99.90;;;;;;5056537;28;20024;-50
2023/02/08 03:14:32;;;;;;;29.50;13.15;;;-6.30;99.90;;;;;;5091725;28;20544;-53
2023/02/08 03:17:36;;;;;;;28.35;12.60;;;-6.30;99.90;;;;;;5062058;28;20579;-51
2023/02/08 03:20:09;;;;;;;25.42;11.20;;;-6.30;99.90;;;;;;5041890;28;20045;-46
2023/02/08 03:23:07;;;;;;;31.15;13.30;;;-6.30;99.90;;;;;;5072383;28;20028;-50
2023/02/08 03:25:49;;;;;;;22.83;9.73;;;-6.40;99.90;;;;;;5051190;28;20032;-50
2023/02/08 03:28:27;;;;;;;24.58;11.13;;;-6.40;99.90;;;;;;5066254;28;20622;-52
2023/02/08 03:31:02;;;;;;;30.10;11.43;;;-6.40;99.90;;;;;;5051084;28;20458;-51
2023/02/08 03:33:41;;;;;;;26.77;11.35;;;-6.40;99.90;;;;;;5068179;28;20516;-51
2023/02/08 03:36:31;;;;;;;19.38;9.23;;;-6.40;99.90;;;;;;5051130;28;20060;-52
2023/02/08 03:39:00;;;;;;;25.70;10.20;;;-6.40;99.90;;;;;;5050191;28;20037;-49
2023/02/08 03:41:30;;;;;;;30.02;11.85;;;-6.40;99.90;;;;;;5088409;28;20024;-51
2023/02/08 03:44:09;;;;;;;22.08;10.52;;;-6.50;99.90;;;;;;5090967;28;20024;-48
2023/02/08 03:46:41;;;;;;;26.60;10.77;;;-6.50;99.90;;;;;;5055336;28;20020;-52
2023/02/08 03:49:12;;;;;;;23.23;9.82;;;-6.50;99.90;;;;;;5090896;28;20056;-52
2023/02/08 03:51:39;;;;;;;28.02;13.10;;;-6.50;99.90;;;;;;5056242;28;20027;-48
2023/02/08 03:54:09;;;;;;;27.00;11.93;;;-6.50;99.90;;;;;;5090945;28;20016;-52
2023/02/08 03:56:58;;;;;;;28.10;11.93;;;-6.50;99.90;;;;;;5055313;28;20032;-48
2023/02/08 03:59:29;;;;;;;23.13;10.77;;;-6.50;99.90;;;;;;5090757;28;20034;-50
2023/02/08 04:01:58;;;;;;;25.40;10.50;;;-6.60;99.90;;;;;;5060452;28;20039;-50
2023/02/08 04:04:27;;;;;;;26.45;10.05;;;-6.50;99.90;;;;;;5090768;28;20020;-65
2023/02/08 04:06:53;;;;;;;23.58;9.80;;;-6.60;99.90;;;;;;5070023;28;20040;-66
2023/02/08 04:09:18;;;;;;;28.20;10.77;;;-6.60;99.90;;;;;;5089458;28;20165;-66
2023/02/08 04:11:44;;;;;;;21.50;10.05;;;-6.60;99.90;;;;;;5073214;28;20026;-65
2023/02/08 04:14:09;;;;;;;21.38;10.18;;;-6.60;99.90;;;;;;5090616;28;20478;-60
2023/02/08 04:16:34;;;;;;;23.23;9.65;;;-6.60;99.90;;;;;;5072151;28;20062;-60
2023/02/08 04:19:00;;;;;;;28.13;11.52;;;-6.60;99.90;;;;;;5089191;28;20464;-60
2023/02/08 04:21:26;;;;;;;22.92;11.23;;;-6.60;99.90;;;;;;5070477;28;20075;-60
2023/02/08 04:23:51;;;;;;;27.48;12.98;;;-6.60;99.90;;;;;;5090673;28;20501;-60
2023/02/08 04:26:17;;;;;;;28.98;11.55;;;-6.60;99.90;;;;;;5069699;28;20499;-61
2023/02/08 04:28:42;;;;;;;24.85;11.95;;;-6.60;99.90;;;;;;5090448;28;20047;-62
2023/02/08 04:31:08;;;;;;;28.27;10.43;;;-6.60;99.90;;;;;;5068733;28;20488;-61
2023/02/08 04:33:33;;;;;;;30.08;11.55;;;-6.70;99.90;;;;;;5088999;28;20037;-61
2023/02/08 04:35:59;;;;;;;26.25;9.77;;;-6.60;99.90;;;;;;5070549;28;20107;-61
2023/02/08 04:38:24;;;;;;;26.60;10.23;;;-6.70;99.90;;;;;;5068504;28;20499;-61
2023/02/08 04:40:50;;;;;;;26.63;11.73;;;-6.70;99.90;;;;;;5089377;28;20051;-61
2023/02/08 04:43:15;;;;;;;23.48;10.27;;;-6.60;99.90;;;;;;5067262;28;20035;-62
2023/02/08 04:45:41;;;;;;;28.00;11.15;;;-6.60;99.90;;;;;;5084783;28;20054;-61
2023/02/08 04:48:06;;;;;;;25.95;9.85;;;-6.70;99.90;;;;;;5069700;28;20510;-60
2023/02/08 04:50:33;;;;;;;21.63;9.85;;;-6.70;99.90;;;;;;5086126;28;20046;-60
2023/02/08 04:52:58;;;;;;;21.98;9.00;;;-6.60;99.90;;;;;;5081877;28;20041;-60
2023/02/08 04:55:24;;;;;;;31.13;13.85;;;-6.60;99.90;;;;;;5069369;28;20480;-60
2023/02/08 04:57:49;;;;;;;26.63;10.98;;;-6.60;99.90;;;;;;5069011;28;20124;-60
2023/02/08 05:00:15;;;;;;;27.40;11.15;;;-6.50;99.90;;;;;;5089647;28;20111;-60
2023/02/08 05:02:41;;;;;;;28.02;11.40;;;-6.50;99.90;;;;;;5068275;28;20040;-61
2023/02/08 05:05:06;;;;;;;30.83;11.00;;;-6.50;99.90;;;;;;5084965;28;20032;-60
2023/02/08 05:07:32;;;;;;;23.23;10.15;;;-6.50;99.90;;;;;;5075769;28;20047;-60
2023/02/08 05:09:58;;;;;;;29.05;10.18;;;-6.60;99.90;;;;;;5082176;28;20028;-60
2023/02/08 05:12:23;;;;;;;30.48;13.48;;;-6.60;99.90;;;;;;5089109;28;20350;-60
2023/02/08 05:14:48;;;;;;;34.92;12.57;;;-6.60;99.90;;;;;;5067897;28;20033;-60
2023/02/08 05:17:14;;;;;;;31.75;12.27;;;-6.60;99.90;;;;;;5088545;28;20575;-60
2023/02/08 05:19:39;;;;;;;29.42;11.57;;;-6.60;99.90;;;;;;5065870;28;20060;-60
2023/02/08 05:22:05;;;;;;;27.48;11.75;;;-6.60;99.90;;;;;;5088230;28;20555;-60
2023/02/08 05:24:30;;;;;;;26.05;10.98;;;-6.60;99.90;;;;;;5067712;28;20041;-60
2023/02/08 05:26:56;;;;;;;24.80;10.82;;;-6.60;99.90;;;;;;5088375;28;20148;-60
2023/02/08 05:29:21;;;;;;;28.42;11.50;;;-6.60;99.90;;;;;;5067605;28;20085;-61
2023/02/08 05:31:47;;;;;;;24.10;9.60;;;-6.50;99.90;;;;;;5088432;28;20768;-60
2023/02/08 05:34:12;;;;;;;26.23;9.83;;;-6.60;99.90;;;;;;5066017;28;20029;-60
2023/02/08 05:36:38;;;;;;;28.52;11.20;;;-6.60;99.90;;;;;;5088360;28;20040;-60
2023/02/08 05:39:04;;;;;;;27.88;11.60;;;-6.60;99.90;;;;;;5067573;28;20369;-60
2023/02/08 05:41:29;;;;;;;33.97;13.55;;;-6.50;99.90;;;;;;5088513;28;20040;-60
2023/02/08 05:43:55;;;;;;;28.98;12.23;;;-6.50;99.90;;;;;;5078159;28;20069;-61
2023/02/08 05:46:21;;;;;;;29.50;12.05;;;-6.50;99.90;;;;;;5069295;28;20074;-60
2023/02/08 05:48:46;;;;;;;28.42;10.43;;;-6.50;99.90;;;;;;5086029;28;20507;-59
2023/02/08 05:51:12;;;;;;;26.45;11.20;;;-6.50;99.90;;;;;;5069149;28;20411;-60
2023/02/08 05:53:37;;;;;;;24.40;11.25;;;-6.60;99.90;;;;;;5083374;28;20028;-61
2023/02/08 05:56:03;;;;;;;26.55;11.30;;;-6.60;99.90;;;;;;5067464;28;20555;-60
2023/02/08 05:58:29;;;;;;;24.08;10.60;;;-6.60;99.90;;;;;;5068535;28;20032;-60
2023/02/08 06:00:55;;;;;;;28.60;11.63;;;-6.60;99.90;;;;;;5067003;28;20064;-61
2023/02/08 06:03:20;;;;;;;31.02;12.98;;;-6.60;99.90;;;;;;5092234;28;20487;-60
2023/02/08 06:05:46;;;;;;;35.45;13.30;;;-6.60;99.90;;;;;;5078113;28;20107;-59
2023/02/08 06:08:11;;;;;;;29.27;11.55;;;-6.60;99.90;;;;;;5072639;28;20582;-60
2023/02/08 06:10:37;;;;;;;28.67;11.13;;;-6.60;99.90;;;;;;5073249;28;20028;-60
2023/02/08 06:13:03;;;;;;;37.95;15.32;;;-6.60;99.90;;;;;;5092125;28;20105;-60
2023/02/08 06:15:29;;;;;;;32.25;14.68;;;-6.50;99.90;;;;;;5069726;28;20032;-60
2023/02/08 06:17:54;;;;;;;33.15;13.18;;;-6.50;99.90;;;;;;5081793;28;20399;-60
2023/02/08 06:20:20;;;;;;;30.20;12.35;;;-6.60;99.90;;;;;;5073853;28;20410;-58
2023/02/08 06:22:45;;;;;;;31.17;12.52;;;-6.60;99.90;;;;;;5091764;28;20036;-60
2023/02/08 06:25:11;;;;;;;21.47;9.63;;;-6.60;99.90;;;;;;5070880;28;20033;-60
2023/02/08 06:27:37;;;;;;;30.27;11.13;;;-6.60;99.90;;;;;;5077622;28;20021;-60
2023/02/08 06:30:03;;;;;;;27.67;11.10;;;-6.60;99.90;;;;;;5091616;28;20447;-60
2023/02/08 06:32:28;;;;;;;28.25;10.50;;;-6.60;99.90;;;;;;5070407;28;20036;-59
2023/02/08 06:34:54;;;;;;;27.58;11.45;;;-6.60;99.90;;;;;;5079609;28;20031;-60
2023/02/08 06:37:19;;;;;;;28.48;10.73;;;-6.60;99.90;;;;;;5070464;28;20494;-60
2023/02/08 06:39:45;;;;;;;36.20;12.52;;;-6.60;99.90;;;;;;5072725;28;20538;-60
2023/02/08 06:42:11;;;;;;;32.65;11.70;;;-6.50;99.90;;;;;;5090929;28;20027;-60
2023/02/08 06:44:36;;;;;;;27.85;11.73;;;-6.60;99.90;;;;;;5073500;28;20024;-60
2023/02/08 06:47:03;;;;;;;26.13;10.88;;;-6.50;99.90;;;;;;5091014;28;20569;-60
2023/02/08 06:49:29;;;;;;;28.65;12.60;;;-6.60;99.90;;;;;;5072357;28;20388;-60
2023/02/08 06:51:54;;;;;;;32.58;12.98;;;-6.50;99.90;;;;;;5069796;28;20029;-60
2023/02/08 06:54:20;;;;;;;36.03;14.50;;;-6.50;99.90;;;;;;5070384;28;20036;-61
2023/02/08 06:56:45;;;;;;;36.35;12.65;;;-6.40;99.90;;;;;;5090454;28;20032;-58
2023/02/08 06:59:11;;;;;;;40.25;15.55;;;-6.30;99.90;;;;;;5069674;28;20032;-60
2023/02/08 07:01:37;;;;;;;36.10;15.70;;;-6.20;99.90;;;;;;5090896;28;20032;-60
2023/02/08 07:04:02;;;;;;;28.63;13.20;;;-6.10;99.90;;;;;;5069537;28;20023;-60
2023/02/08 07:06:28;;;;;;;36.78;15.68;;;-6.00;99.90;;;;;;5084622;28;20647;-61
2023/02/08 07:08:53;;;;;;;31.67;12.90;;;-6.00;99.90;;;;;;5068368;28;20120;-60
2023/02/08 07:11:20;;;;;;;36.90;16.13;;;-5.90;99.90;;;;;;5088799;28;20036;-60
2023/02/08 07:13:49;;;;;;;35.03;14.60;;;-5.80;99.90;;;;;;5068036;28;20033;-60
2023/02/08 07:16:15;;;;;;;27.60;13.73;;;-5.80;99.90;;;;;;5075162;28;20031;-61
2023/02/08 07:18:41;;;;;;;31.08;13.77;;;-5.70;99.90;;;;;;5068785;28;20032;-59
2023/02/08 07:21:07;;;;;;;37.15;15.38;;;-5.60;99.90;;;;;;5086260;28;20447;-60
2023/02/08 07:23:32;;;;;;;44.63;18.23;;;-5.50;99.90;;;;;;5069430;28;20032;-60
2023/02/08 07:26:00;;;;;;;36.63;14.52;;;-5.50;99.90;;;;;;5090952;28;20762;-60
2023/02/08 07:28:26;;;;;;;48.50;17.40;;;-5.30;99.90;;;;;;5070083;28;20097;-60
2023/02/08 07:30:51;;;;;;;30.70;13.02;;;-5.20;99.90;;;;;;5089460;28;20546;-61
2023/02/08 07:33:17;;;;;;;39.80;17.48;;;-5.00;99.90;;;;;;5068421;28;20025;-59
2023/02/08 07:35:42;;;;;;;47.03;18.35;;;-4.90;99.90;;;;;;5090105;28;20111;-64
2023/02/08 07:38:08;;;;;;;42.95;17.67;;;-4.70;99.90;;;;;;5069372;28;20039;-49
2023/02/08 07:40:34;;;;;;;39.13;17.27;;;-4.60;99.90;;;;;;5090126;28;20063;-53
2023/02/08 07:42:59;;;;;;;43.65;18.35;;;-4.40;99.90;;;;;;5077841;28;20504;-51
2023/02/08 07:45:25;;;;;;;46.67;21.42;;;-4.20;99.90;;;;;;5071085;28;20047;-51
2023/02/08 07:47:50;;;;;;;48.13;21.40;;;-4.10;99.90;;;;;;5079247;28;20055;-53
2023/02/08 07:50:16;;;;;;;45.63;21.52;;;-3.90;99.90;;;;;;5090087;28;20528;-51
2023/02/08 07:52:44;;;;;;;50.70;21.20;;;-3.70;99.90;;;;;;5069154;28;20064;-49
2023/02/08 07:55:15;;;;;;;50.63;20.42;;;-3.60;99.90;;;;;;5090528;28;20035;-49
2023/02/08 07:57:44;;;;;;;52.83;22.02;;;-3.40;99.90;;;;;;5063894;28;20475;-53
2023/02/08 08:00:10;;;;;;;48.67;20.63;;;-3.30;99.90;;;;;;5070511;28;20037;-46
2023/02/08 08:02:36;;;;;;;50.42;19.17;;;-3.20;99.90;;;;;;5081204;28;20033;-50
2023/02/08 08:05:02;;;;;;;45.20;19.92;;;-3.10;99.90;;;;;;5071045;28;20026;-49
2023/02/08 08:07:27;;;;;;;46.92;20.08;;;-2.90;99.90;;;;;;5078534;28;20143;-53
2023/02/08 08:09:53;;;;;;;47.17;21.02;;;-2.80;99.90;;;;;;5089954;28;20495;-53
2023/02/08 08:12:18;;;;;;;44.78;18.85;;;-2.70;99.90;;;;;;5073379;28;20038;-49
2023/02/08 08:14:44;;;;;;;48.17;20.50;;;-2.50;99.90;;;;;;5090632;28;20144;-61
2023/02/08 08:17:09;;;;;;;55.85;22.38;;;-2.40;99.90;;;;;;5070692;28;20508;-61
2023/02/08 08:19:35;;;;;;;45.28;20.73;;;-2.20;99.90;;;;;;5090602;28;20040;-60
2023/02/08 08:22:00;;;;;;;41.92;20.52;;;-2.10;99.90;;;;;;5067324;28;20035;-61
2023/02/08 08:24:26;;;;;;;42.85;19.40;;;-1.90;99.90;;;;;;5070166;28;20029;-61
2023/02/08 08:26:51;;;;;;;39.95;18.90;;;-1.70;99.90;;;;;;5086814;28;20619;-60
2023/02/08 08:29:17;;;;;;;45.90;21.23;;;-1.50;99.90;;;;;;5070023;28;20032;-61
2023/02/08 08:31:43;;;;;;;38.17;19.48;;;-1.30;99.90;;;;;;5089359;28;20392;-60
2023/02/08 08:34:08;;;;;;;53.45;21.45;;;-1.00;99.90;;;;;;5088240;28;20090;-61
2023/02/08 08:36:34;;;;;;;46.47;23.00;;;-0.80;99.90;;;;;;5069072;28;20654;-60
2023/02/08 08:39:00;;;;;;;45.63;23.33;;;-0.60;99.90;;;;;;5067357;28;20056;-61
2023/02/08 08:41:26;;;;;;;49.25;25.17;;;-0.50;98.40;;;;;;5087916;28;20036;-61
2023/02/08 08:43:52;;;;;;;53.67;25.52;;;-0.30;97.80;;;;;;5068536;28;20041;-61
2023/02/08 08:46:18;;;;;;;45.28;23.45;;;-0.20;93.80;;;;;;5089328;28;20036;-62
2023/02/08 08:48:44;;;;;;;53.72;26.08;;;-0.10;96.20;;;;;;5068128;28;20029;-61
2023/02/08 08:51:10;;;;;;;51.78;25.52;;;-0.10;90.10;;;;;;5089187;28;20430;-60
2023/02/08 08:53:36;;;;;;;48.38;25.67;;;0.10;90.80;;;;;;5068424;28;20039;-60
2023/02/08 08:56:02;;;;;;;48.38;25.52;;;0.20;91.10;;;;;;5089169;28;20025;-60
2023/02/08 08:58:28;;;;;;;49.30;24.67;;;0.40;87.40;;;;;;5068036;28;20225;-58
2023/02/08 09:00:58;;;;;;;47.40;25.35;;;0.50;89.10;;;;;;5087641;28;20404;-60
2023/02/08 09:03:25;;;;;;;47.67;24.88;;;0.50;83.90;;;;;;5061262;28;20039;-60
2023/02/08 09:05:51;;;;;;;53.38;28.05;;;0.50;85.50;;;;;;5084275;28;20032;-60
2023/02/08 09:08:16;;;;;;;50.97;26.45;;;0.50;83.20;;;;;;5066397;28;20418;-60
2023/02/08 09:10:42;;;;;;;48.90;25.52;;;0.60;87.60;;;;;;5088981;28;20757;-60
2023/02/08 09:13:08;;;;;;;50.33;25.35;;;0.70;82.60;;;;;;5068048;28;20562;-60
2023/02/08 09:15:37;;;;;;;52.00;25.48;;;0.80;80.70;;;;;;5087351;28;20513;-60
2023/02/08 09:18:02;;;;;;;49.03;25.40;;;0.90;80.60;;;;;;5077740;28;20117;-61
2023/02/08 09:20:28;;;;;;;54.58;26.70;;;0.90;78.20;;;;;;5069400;28;20060;-59
2023/02/08 09:22:53;;;;;;;49.60;24.33;;;0.90;76.40;;;;;;5077342;28;20039;-60
2023/02/08 09:25:19;;;;;;;46.42;23.58;;;0.90;76.40;;;;;;5087353;28;20027;-60
2023/02/08 09:27:44;;;;;;;48.72;24.98;;;1.10;78.70;;;;;;5075757;28;20020;-60
2023/02/08 09:30:10;;;;;;;51.35;26.25;;;1.00;73.40;;;;;;5089197;28;20036;-61
2023/02/08 09:32:38;;;;;;;47.80;22.45;;;1.00;77.90;;;;;;5074236;28;20483;-60
2023/02/08 09:35:05;;;;;;;43.78;23.02;;;1.10;75.90;;;;;;5089252;28;20043;-61
2023/02/08 09:37:30;;;;;;;51.47;25.60;;;1.00;75.00;;;;;;5072907;28;20028;-61
2023/02/08 09:39:58;;;;;;;53.15;26.90;;;1.00;73.50;;;;;;5087687;28;20077;-60
2023/02/08 09:42:36;;;;;;;48.90;24.92;;;0.90;71.70;;;;;;5067168;28;20554;-60
2023/02/08 09:45:26;;;;;;;50.30;24.88;;;0.90;72.40;;;;;;5069010;28;20060;-60
2023/02/08 09:48:12;;;;;;;49.80;27.05;;;0.80;72.70;;;;;;5055921;28;20036;-61
2023/02/08 09:50:45;;;;;;;54.38;25.85;;;0.70;73.10;;;;;;5048945;28;20029;-61
2023/02/08 09:53:13;;;;;;;53.05;26.27;;;0.80;73.70;;;;;;5070247;28;20097;-61
2023/02/08 09:55:46;;;;;;;51.60;24.70;;;0.90;74.60;;;;;;5069001;28;20063;-60
2023/02/08 09:58:30;;;;;;;46.90;22.65;;;0.90;73.80;;;;;;5058730;28;20068;-60
2023/02/08 10:00:56;;;;;;;48.45;23.50;;;1.00;73.10;;;;;;5048527;28;20029;-61
2023/02/08 10:03:27;;;;;;;48.55;23.23;;;1.00;72.90;;;;;;5072787;28;20557;-61
2023/02/08 10:05:53;;;;;;;54.33;26.15;;;1.10;71.40;;;;;;5083978;28;20111;-60
2023/02/08 10:08:19;;;;;;;55.33;25.45;;;1.00;70.60;;;;;;5067099;28;20131;-60
2023/02/08 10:10:57;;;;;;;49.83;25.17;;;0.90;71.60;;;;;;5086805;28;20039;-61
2023/02/08 10:13:36;;;;;;;51.60;25.20;;;0.90;70.10;;;;;;5060331;28;20502;-61
2023/02/08 10:16:24;;;;;;;53.75;23.00;;;1.00;71.10;;;;;;5086918;28;20043;-61
2023/02/08 10:19:20;;;;;;;47.50;24.67;;;1.10;70.90;;;;;;5063926;28;20029;-61
2023/02/08 10:22:04;;;;;;;52.17;23.73;;;1.00;70.10;;;;;;5048566;28;20039;-61
2023/02/08 10:24:59;;;;;;;47.17;24.42;;;1.10;70.70;;;;;;5048409;28;20029;-60
2023/02/08 10:27:47;;;;;;;54.95;25.15;;;1.00;70.00;;;;;;5051734;28;20024;-61
2023/02/08 10:30:38;;;;;;;52.85;25.50;;;0.90;69.40;;;;;;5068591;28;20031;-61
2023/02/08 10:33:19;;;;;;;55.63;26.98;;;0.80;71.60;;;;;;5067801;28;20028;-61
2023/02/08 10:35:48;;;;;;;47.65;24.60;;;0.80;73.10;;;;;;5048107;28;20041;-61
2023/02/08 10:38:19;;;;;;;47.53;24.08;;;0.90;72.90;;;;;;5073838;28;20048;-61
2023/02/08 10:40:52;;;;;;;58.40;27.40;;;1.00;72.50;;;;;;5087571;28;20036;-58
2023/02/08 10:43:32;;;;;;;54.95;26.52;;;0.80;71.50;;;;;;5066359;28;20020;-58
2023/02/08 10:46:25;;;;;;;51.28;25.42;;;0.70;72.30;;;;;;5048321;28;20063;-61
2023/02/08 10:49:02;;;;;;;53.65;26.08;;;0.80;74.10;;;;;;5064674;28;20035;-61
2023/02/08 10:51:29;;;;;;;60.40;25.85;;;0.70;72.40;;;;;;5091157;28;20038;-59
2023/02/08 10:53:55;;;;;;;55.38;27.30;;;0.70;73.90;;;;;;5070278;28;20017;-62
2023/02/08 10:56:31;;;;;;;53.15;25.38;;;0.60;74.00;;;;;;5091422;28;20032;-61
2023/02/08 10:58:58;;;;;;;52.80;25.70;;;0.70;75.50;;;;;;5067848;28;20029;-61
2023/02/08 11:01:25;;;;;;;53.10;25.27;;;0.70;74.60;;;;;;5091285;28;20028;-61
2023/02/08 11:04:09;;;;;;;54.05;27.00;;;0.70;75.80;;;;;;5070184;28;20427;-61
2023/02/08 11:06:34;;;;;;;57.85;27.13;;;0.70;74.40;;;;;;5050377;28;20033;-60
2023/02/08 11:09:00;;;;;;;55.25;26.30;;;0.70;74.10;;;;;;5069922;28;20043;-61
2023/02/08 11:11:32;;;;;;;50.83;25.48;;;0.70;76.20;;;;;;5090830;28;20032;-62
2023/02/08 11:14:16;;;;;;;58.13;26.63;;;0.80;76.00;;;;;;5084564;28;20179;-61
2023/02/08 11:16:49;;;;;;;57.05;26.10;;;0.70;74.30;;;;;;5091452;28;20174;-61
2023/02/08 11:19:38;;;;;;;48.45;24.48;;;0.80;75.60;;;;;;5091571;28;20024;-61
2023/02/08 11:22:06;;;;;;;53.20;26.23;;;0.80;74.90;;;;;;5053984;28;20033;-61
2023/02/08 11:24:42;;;;;;;55.88;24.98;;;0.90;74.60;;;;;;5091525;28;20047;-61
2023/02/08 11:27:38;;;;;;;48.33;24.20;;;0.90;72.50;;;;;;5055161;28;20032;-61
2023/02/08 11:30:12;;;;;;;34.65;17.80;;;0.90;72.90;;;;;;5091541;28;20032;-61
2023/02/08 11:32:43;;;;;;;48.90;22.98;;;1.00;68.40;;;;;;5076885;28;20040;-61
2023/02/08 11:35:21;;;;;;;42.25;22.08;;;1.10;67.20;;;;;;5089853;28;20028;-61
2023/02/08 11:37:49;;;;;;;54.53;24.48;;;1.20;64.60;;;;;;5065688;28;20032;-61
2023/02/08 11:40:28;;;;;;;48.13;22.55;;;1.20;64.40;;;;;;5069703;28;20086;-61
2023/02/08 11:42:54;;;;;;;44.60;20.52;;;1.20;66.00;;;;;;5066556;28;20043;-61
2023/02/08 11:45:24;;;;;;;45.55;22.10;;;1.40;65.20;;;;;;5071370;28;20036;-60
2023/02/08 11:47:51;;;;;;;44.78;21.65;;;1.40;62.40;;;;;;5087639;28;20452;-61
2023/02/08 11:50:37;;;;;;;42.47;22.10;;;1.50;62.60;;;;;;5071286;28;20025;-61
2023/02/08 11:53:20;;;;;;;47.90;23.15;;;1.50;61.40;;;;;;5068404;28;20130;-61
2023/02/08 11:55:59;;;;;;;42.95;22.70;;;1.50;59.50;;;;;;5050923;28;20365;-61
2023/02/08 11:58:25;;;;;;;46.00;22.92;;;1.50;59.90;;;;;;5061177;28;20033;-61
2023/02/08 12:01:03;;;;;;;44.10;22.33;;;1.50;58.60;;;;;;5089708;28;20096;-60
2023/02/08 12:03:37;;;;;;;42.20;21.15;;;1.50;57.00;;;;;;5061515;28;20504;-60
2023/02/08 12:06:16;;;;;;;44.13;22.83;;;1.60;57.60;;;;;;5041910;28;20044;-61
2023/02/08 12:08:48;;;;;;;41.90;21.60;;;1.70;57.80;;;;;;5064580;28;20479;-61
2023/02/08 12:11:30;;;;;;;45.85;20.67;;;1.70;57.80;;;;;;5054716;28;20019;-59
2023/02/08 12:14:37;;;;;;;35.22;17.83;;;1.80;58.30;;;;;;5089471;28;20069;-58
2023/02/08 12:17:34;;;;;;;41.42;18.42;;;1.90;58.30;;;;;;5068867;28;20048;-58
2023/02/08 12:20:37;;;;;;;40.00;19.38;;;1.90;56.70;;;;;;5050394;28;20186;-57
2023/02/08 12:23:39;;;;;;;36.40;18.95;;;2.00;56.40;;;;;;5066716;28;20551;-56
2023/02/08 12:26:37;;;;;;;39.47;19.85;;;2.00;56.60;;;;;;5052545;28;20602;-56
2023/02/08 12:29:17;;;;;;;38.78;19.88;;;2.10;55.40;;;;;;5050786;28;20107;-58
2023/02/08 12:32:04;;;;;;;39.92;19.55;;;2.10;55.00;;;;;;5075253;28;20598;-56
2023/02/08 12:34:51;;;;;;;42.60;18.48;;;2.10;56.90;;;;;;5049841;28;20063;-55
2023/02/08 12:43:13;;;;;;;41.33;20.92;;;2.10;56.60;;;;;;5067174;28;20419;-55
2023/02/08 12:46:03;;;;;;;43.58;21.10;;;2.20;54.90;;;;;;5089334;28;20024;-52
2023/02/08 12:49:23;;;;;;;38.28;20.27;;;2.10;53.20;;;;;;5088525;28;20028;-51
2023/02/08 12:52:10;;;;;;;42.65;21.55;;;2.00;53.60;;;;;;5028358;28;20032;-55
2023/02/08 12:54:49;;;;;;;41.50;20.65;;;2.00;55.00;;;;;;5049425;28;20037;-54
2023/02/08 12:57:18;;;;;;;43.90;21.42;;;2.00;53.70;;;;;;5070904;28;20040;-53
2023/02/08 12:59:48;;;;;;;42.35;20.38;;;2.00;53.90;;;;;;5069403;28;20230;-54